Language: 


Des rapports , des résumés tant et plus, au choix de chacun....


Données statistiques de la station
Quotidien Rapport Décembre 8, 2017 Unités:  les deux    Anglais   Métrique
« Précédent Jour
Suivant Jour »
Quotidien Hebdomadaire Mensuel Annuel Actuel
  Haut: Bas: Moyen:
Température: 43.3 °F /  6.3 °C 32.4 °F /  0.2 °C 36.7 °F /  2.6 °C
Pt de rosée: 39.2 °F /  4.0 °C 28.4 °F /  -2.0 °C 33.4 °F /  0.8 °C
Humidité: 98 % 64 % 86 %
Vitesse du vent: 13.4 mph /  21.6 km/h - 4.5 mph /  7.3 km/h
Rafales: 19.7 mph /  31.7 km/h - -
Vent:- - West
Pression: 30 in /  1015.1 hPa 29.8 in /  1010.0 hPa -
Précipitation: 0.01 in /  0.3 mm    
Historical Graphs
 
 
Données statistiques pour Décembre 8, 2017
Heure Température Point de rosée Pression Vent Vitesse du vent Refales Humidité Pluie (taux horaire)
00:02 39.9 °F /  4.4 °C 39.2 °F /  4.0 °C 29.9 in /  1011.1 hPa West 6 mph /  9.7 km/h 6.5 mph /  10.5 km/h 98 % 0 in /  0.0 mm
00:07 39.7 °F /  4.3 °C 39.2 °F /  4.0 °C 29.9 in /  1011.1 hPa WSW 3.6 mph /  5.8 km/h 6 mph /  9.7 km/h 98 % 0 in /  0.0 mm
00:13 39.6 °F /  4.2 °C 39.2 °F /  4.0 °C 29.9 in /  1011.1 hPa WSW 3.6 mph /  5.8 km/h 6 mph /  9.7 km/h 98 % 0 in /  0.0 mm
00:18 39.4 °F /  4.1 °C 39.2 °F /  4.0 °C 29.9 in /  1011.1 hPa WSW 3.6 mph /  5.8 km/h 3.6 mph /  5.8 km/h 98 % 0 in /  0.0 mm
00:23 39.4 °F /  4.1 °C 39.2 °F /  4.0 °C 29.9 in /  1011.1 hPa WSW 3.6 mph /  5.8 km/h 3.6 mph /  5.8 km/h 98 % 0 in /  0.0 mm
00:28 39.2 °F /  4.0 °C 39.2 °F /  4.0 °C 29.9 in /  1011.1 hPa WSW 3.6 mph /  5.8 km/h 3.6 mph /  5.8 km/h 98 % 0 in /  0.0 mm
00:33 39 °F /  3.9 °C 39.2 °F /  4.0 °C 29.9 in /  1011.1 hPa WSW 3.6 mph /  5.8 km/h 3.6 mph /  5.8 km/h 98 % 0 in /  0.0 mm
00:38 38.7 °F /  3.7 °C 39.2 °F /  4.0 °C 29.9 in /  1011.1 hPa WSW 3.6 mph /  5.8 km/h 3.6 mph /  5.8 km/h 98 % 0 in /  0.0 mm
00:43 38.5 °F /  3.6 °C 39.2 °F /  4.0 °C 29.9 in /  1011.1 hPa WSW 3.6 mph /  5.8 km/h 3.6 mph /  5.8 km/h 98 % 0 in /  0.0 mm
00:48 38.5 °F /  3.6 °C 39.2 °F /  4.0 °C 29.9 in /  1011.1 hPa WSW 3.6 mph /  5.8 km/h 3.6 mph /  5.8 km/h 98 % 0 in /  0.0 mm
00:53 38.3 °F /  3.5 °C 39.2 °F /  4.0 °C 29.9 in /  1011.1 hPa WSW 3.6 mph /  5.8 km/h 3.6 mph /  5.8 km/h 98 % 0 in /  0.0 mm
00:58 38.3 °F /  3.5 °C 39.2 °F /  4.0 °C 29.9 in /  1011.1 hPa WSW 3.6 mph /  5.8 km/h 3.6 mph /  5.8 km/h 98 % 0 in /  0.0 mm
01:02 38.5 °F /  3.6 °C 39.2 °F /  4.0 °C 29.9 in /  1011.1 hPa WSW 3.6 mph /  5.8 km/h 3.6 mph /  5.8 km/h 98 % 0 in /  0.0 mm
01:07 38.5 °F /  3.6 °C 39.2 °F /  4.0 °C 29.9 in /  1011.1 hPa WSW 3.6 mph /  5.8 km/h 3.6 mph /  5.8 km/h 98 % 0 in /  0.0 mm
01:12 38.5 °F /  3.6 °C 39.2 °F /  4.0 °C 29.8 in /  1010.0 hPa WSW 3.6 mph /  5.8 km/h 3.6 mph /  5.8 km/h 98 % 0 in /  0.0 mm
01:17 38.5 °F /  3.6 °C 39.2 °F /  4.0 °C 29.8 in /  1010.0 hPa WSW 3.6 mph /  5.8 km/h 3.6 mph /  5.8 km/h 98 % 0 in /  0.0 mm
01:22 38.5 °F /  3.6 °C 39.2 °F /  4.0 °C 29.8 in /  1010.0 hPa WSW 3.6 mph /  5.8 km/h 3.6 mph /  5.8 km/h 98 % 0 in /  0.0 mm
01:27 38.3 °F /  3.5 °C 39.2 °F /  4.0 °C 29.9 in /  1011.1 hPa WSW 3.6 mph /  5.8 km/h 3.6 mph /  5.8 km/h 98 % 0 in /  0.0 mm
01:32 38.1 °F /  3.4 °C 37.4 °F /  3.0 °C 29.9 in /  1011.1 hPa WSW 3.6 mph /  5.8 km/h 3.6 mph /  5.8 km/h 98 % 0 in /  0.0 mm
01:38 38.1 °F /  3.4 °C 37.4 °F /  3.0 °C 29.9 in /  1011.1 hPa WSW 3.6 mph /  5.8 km/h 3.6 mph /  5.8 km/h 98 % 0 in /  0.0 mm
01:43 38.1 °F /  3.4 °C 37.4 °F /  3.0 °C 29.9 in /  1011.1 hPa WSW 3.6 mph /  5.8 km/h 3.6 mph /  5.8 km/h 98 % 0 in /  0.0 mm
01:48 37.9 °F /  3.3 °C 37.4 °F /  3.0 °C 29.9 in /  1011.1 hPa WSW 3.6 mph /  5.8 km/h 3.6 mph /  5.8 km/h 98 % 0 in /  0.0 mm
01:53 37.8 °F /  3.2 °C 37.4 °F /  3.0 °C 29.9 in /  1011.1 hPa WSW 3.6 mph /  5.8 km/h 3.6 mph /  5.8 km/h 98 % 0 in /  0.0 mm
01:58 37.6 °F /  3.1 °C 37.4 °F /  3.0 °C 29.9 in /  1011.1 hPa WSW 3.6 mph /  5.8 km/h 3.6 mph /  5.8 km/h 98 % 0 in /  0.0 mm
02:03 37.4 °F /  3.0 °C 37.4 °F /  3.0 °C 29.9 in /  1011.1 hPa WSW 3.6 mph /  5.8 km/h 3.6 mph /  5.8 km/h 98 % 0 in /  0.0 mm
02:08 37.2 °F /  2.9 °C 37.4 °F /  3.0 °C 29.9 in /  1011.1 hPa WSW 3.6 mph /  5.8 km/h 3.6 mph /  5.8 km/h 98 % 0 in /  0.0 mm
02:13 37 °F /  2.8 °C 37.4 °F /  3.0 °C 29.9 in /  1011.1 hPa WSW 3.6 mph /  5.8 km/h 3.6 mph /  5.8 km/h 98 % 0 in /  0.0 mm
02:18 37 °F /  2.8 °C 37.4 °F /  3.0 °C 29.9 in /  1011.1 hPa WSW 3.6 mph /  5.8 km/h 3.6 mph /  5.8 km/h 98 % 0 in /  0.0 mm
02:23 36.9 °F /  2.7 °C 37.4 °F /  3.0 °C 29.9 in /  1011.1 hPa WSW 3.6 mph /  5.8 km/h 3.6 mph /  5.8 km/h 98 % 0 in /  0.0 mm
02:28 36.7 °F /  2.6 °C 37.4 °F /  3.0 °C 29.9 in /  1011.1 hPa WSW 3.6 mph /  5.8 km/h 3.6 mph /  5.8 km/h 98 % 0 in /  0.0 mm
02:33 36.5 °F /  2.5 °C 37.4 °F /  3.0 °C 29.9 in /  1011.1 hPa WSW 3.6 mph /  5.8 km/h 3.6 mph /  5.8 km/h 98 % 0 in /  0.0 mm
02:38 36.5 °F /  2.5 °C 37.4 °F /  3.0 °C 29.9 in /  1011.1 hPa WSW 3.6 mph /  5.8 km/h 3.6 mph /  5.8 km/h 98 % 0 in /  0.0 mm
02:43 36.3 °F /  2.4 °C 37.4 °F /  3.0 °C 29.8 in /  1010.0 hPa WSW 3.6 mph /  5.8 km/h 3.6 mph /  5.8 km/h 98 % 0 in /  0.0 mm
02:48 36.3 °F /  2.4 °C 37.4 °F /  3.0 °C 29.8 in /  1010.0 hPa WSW 3.6 mph /  5.8 km/h 3.6 mph /  5.8 km/h 98 % 0 in /  0.0 mm
02:53 36.3 °F /  2.4 °C 37.4 °F /  3.0 °C 29.8 in /  1010.0 hPa WSW 3.6 mph /  5.8 km/h 3.6 mph /  5.8 km/h 98 % 0 in /  0.0 mm
02:58 36.3 °F /  2.4 °C 37.4 °F /  3.0 °C 29.8 in /  1010.0 hPa WSW 3.6 mph /  5.8 km/h 3.6 mph /  5.8 km/h 98 % 0 in /  0.0 mm
03:04 36.1 °F /  2.3 °C 37.4 °F /  3.0 °C 29.8 in /  1010.0 hPa Calm     98 % 0 in /  0.0 mm
03:09 36.1 °F /  2.3 °C 37.4 °F /  3.0 °C 29.8 in /  1010.0 hPa Calm     98 % 0 in /  0.0 mm
03:14 36.1 °F /  2.3 °C 37.4 °F /  3.0 °C 29.9 in /  1011.1 hPa Calm     98 % 0 in /  0.0 mm
03:19 36.1 °F /  2.3 °C 37.4 °F /  3.0 °C 29.9 in /  1011.1 hPa Calm     98 % 0 in /  0.0 mm
03:24 36.1 °F /  2.3 °C 37.4 °F /  3.0 °C 29.9 in /  1011.1 hPa Calm     98 % 0 in /  0.0 mm
03:29 36 °F /  2.2 °C 35.6 °F /  2.0 °C 29.9 in /  1011.1 hPa Calm     98 % 0 in /  0.0 mm
03:34 35.8 °F /  2.1 °C 35.6 °F /  2.0 °C 29.9 in /  1011.1 hPa Calm     98 % 0 in /  0.0 mm
03:39 35.6 °F /  2.0 °C 35.6 °F /  2.0 °C 29.9 in /  1011.1 hPa Calm     98 % 0 in /  0.0 mm
03:49 35.2 °F /  1.8 °C 35.6 °F /  2.0 °C 29.9 in /  1011.1 hPa Calm     98 % 0 in /  0.0 mm
03:54 35.1 °F /  1.7 °C 35.6 °F /  2.0 °C 29.9 in /  1011.1 hPa Calm     98 % 0 in /  0.0 mm
03:59 34.9 °F /  1.6 °C 35.6 °F /  2.0 °C 29.9 in /  1011.1 hPa Calm     98 % 0 in /  0.0 mm
04:04 34.7 °F /  1.5 °C 35.6 °F /  2.0 °C 29.9 in /  1011.1 hPa Calm     98 % 0 in /  0.0 mm
04:09 34.5 °F /  1.4 °C 33.8 °F /  1.0 °C 29.9 in /  1011.1 hPa Calm     98 % 0 in /  0.0 mm
04:16 34.3 °F /  1.3 °C 33.8 °F /  1.0 °C 29.9 in /  1011.1 hPa Calm     98 % 0 in /  0.0 mm
04:21 34.5 °F /  1.4 °C 33.8 °F /  1.0 °C 29.9 in /  1011.1 hPa Calm     98 % 0 in /  0.0 mm
04:26 34.7 °F /  1.5 °C 35.6 °F /  2.0 °C 29.9 in /  1011.1 hPa Calm     98 % 0 in /  0.0 mm
04:28 34.7 °F /  1.5 °C 35.6 °F /  2.0 °C 29.9 in /  1011.1 hPa Calm     98 % 0 in /  0.0 mm
04:33 34.9 °F /  1.6 °C 35.6 °F /  2.0 °C 29.9 in /  1011.1 hPa Calm     98 % 0 in /  0.0 mm
04:38 35.1 °F /  1.7 °C 35.6 °F /  2.0 °C 29.9 in /  1011.1 hPa Calm     98 % 0 in /  0.0 mm
04:43 35.1 °F /  1.7 °C 35.6 °F /  2.0 °C 29.9 in /  1011.1 hPa Calm     98 % 0 in /  0.0 mm
04:48 35.2 °F /  1.8 °C 35.6 °F /  2.0 °C 29.9 in /  1011.1 hPa Calm     98 % 0 in /  0.0 mm
04:53 35.1 °F /  1.7 °C 35.6 °F /  2.0 °C 29.9 in /  1011.1 hPa Calm     98 % 0 in /  0.0 mm
04:58 35.1 °F /  1.7 °C 35.6 °F /  2.0 °C 29.9 in /  1011.1 hPa Calm     98 % 0 in /  0.0 mm
05:03 34.9 °F /  1.6 °C 35.6 °F /  2.0 °C 29.9 in /  1011.1 hPa Calm     98 % 0 in /  0.0 mm
05:09 34.7 °F /  1.5 °C 35.6 °F /  2.0 °C 29.9 in /  1011.1 hPa Calm     98 % 0.01 in /  0.3 mm
05:14 34.5 °F /  1.4 °C 33.8 °F /  1.0 °C 29.8 in /  1010.0 hPa Calm     98 % 0.01 in /  0.3 mm
05:19 34.3 °F /  1.3 °C 33.8 °F /  1.0 °C 29.8 in /  1010.0 hPa Calm     98 % 0.01 in /  0.3 mm
05:24 34.3 °F /  1.3 °C 33.8 °F /  1.0 °C 29.8 in /  1010.0 hPa Calm     98 % 0.01 in /  0.3 mm
05:29 34.3 °F /  1.3 °C 33.8 °F /  1.0 °C 29.8 in /  1010.0 hPa Calm     98 % 0.01 in /  0.3 mm
05:34 34 °F /  1.1 °C 33.8 °F /  1.0 °C 29.8 in /  1010.0 hPa Calm     98 % 0.01 in /  0.3 mm
05:39 34 °F /  1.1 °C 33.8 °F /  1.0 °C 29.8 in /  1010.0 hPa Calm     98 % 0.01 in /  0.3 mm
05:44 34 °F /  1.1 °C 33.8 °F /  1.0 °C 29.8 in /  1010.0 hPa Calm     98 % 0.01 in /  0.3 mm
05:49 34 °F /  1.1 °C 33.8 °F /  1.0 °C 29.8 in /  1010.0 hPa Calm     98 % 0.01 in /  0.3 mm
05:54 33.8 °F /  1.0 °C 33.8 °F /  1.0 °C 29.8 in /  1010.0 hPa Calm     98 % 0.01 in /  0.3 mm
05:59 33.6 °F /  0.9 °C 33.8 °F /  1.0 °C 29.8 in /  1010.0 hPa Calm     98 % 0.01 in /  0.3 mm
06:04 33.4 °F /  0.8 °C 33.8 °F /  1.0 °C 29.8 in /  1010.0 hPa Calm     98 % 0 in /  0.0 mm
06:09 33.3 °F /  0.7 °C 33.8 °F /  1.0 °C 29.8 in /  1010.0 hPa Calm     98 % 0 in /  0.0 mm
06:14 33.1 °F /  0.6 °C 33.8 °F /  1.0 °C 29.8 in /  1010.0 hPa Calm     98 % 0 in /  0.0 mm
06:19 33.3 °F /  0.7 °C 33.8 °F /  1.0 °C 29.8 in /  1010.0 hPa Calm     98 % 0 in /  0.0 mm
06:24 33.3 °F /  0.7 °C 33.8 °F /  1.0 °C 29.8 in /  1010.0 hPa Calm     98 % 0 in /  0.0 mm
06:29 33.4 °F /  0.8 °C 33.8 °F /  1.0 °C 29.8 in /  1010.0 hPa Calm     98 % 0 in /  0.0 mm
06:34 33.3 °F /  0.7 °C 33.8 °F /  1.0 °C 29.8 in /  1010.0 hPa Calm     98 % 0 in /  0.0 mm
06:39 33.4 °F /  0.8 °C 33.8 °F /  1.0 °C 29.8 in /  1010.0 hPa Calm     98 % 0 in /  0.0 mm
06:45 33.3 °F /  0.7 °C 33.8 °F /  1.0 °C 29.8 in /  1010.0 hPa Calm   2.9 mph /  4.7 km/h 98 % 0 in /  0.0 mm
06:50 33.3 °F /  0.7 °C 33.8 °F /  1.0 °C 29.8 in /  1010.0 hPa Calm   2.9 mph /  4.7 km/h 98 % 0 in /  0.0 mm
06:55 33.3 °F /  0.7 °C 33.8 °F /  1.0 °C 29.8 in /  1010.0 hPa Calm   3.1 mph /  5.0 km/h 98 % 0 in /  0.0 mm
07:00 33.3 °F /  0.7 °C 33.8 °F /  1.0 °C 29.8 in /  1010.0 hPa West 4.3 mph /  6.9 km/h 4.3 mph /  6.9 km/h 98 % 0 in /  0.0 mm
07:05 33.1 °F /  0.6 °C 33.8 °F /  1.0 °C 29.8 in /  1010.0 hPa West 3.4 mph /  5.5 km/h 4.3 mph /  6.9 km/h 98 % 0 in /  0.0 mm
07:10 33.3 °F /  0.7 °C 33.8 °F /  1.0 °C 29.8 in /  1010.0 hPa WSW 4.9 mph /  7.9 km/h 5.4 mph /  8.7 km/h 98 % 0 in /  0.0 mm
07:15 33.3 °F /  0.7 °C 33.8 °F /  1.0 °C 29.8 in /  1010.0 hPa WSW 6 mph /  9.7 km/h 6 mph /  9.7 km/h 98 % 0 in /  0.0 mm
07:25 33.6 °F /  0.9 °C 33.8 °F /  1.0 °C 29.8 in /  1010.0 hPa West 4 mph /  6.4 km/h 6 mph /  9.7 km/h 98 % 0 in /  0.0 mm
07:30 33.8 °F /  1.0 °C 33.8 °F /  1.0 °C 29.8 in /  1010.0 hPa West 4.3 mph /  6.9 km/h 4.5 mph /  7.2 km/h 98 % 0 in /  0.0 mm
07:35 33.6 °F /  0.9 °C 33.8 °F /  1.0 °C 29.8 in /  1010.0 hPa West 1.6 mph /  2.6 km/h 4.5 mph /  7.2 km/h 98 % 0 in /  0.0 mm
07:40 33.6 °F /  0.9 °C 33.8 °F /  1.0 °C 29.8 in /  1010.0 hPa WSW 3.1 mph /  5.0 km/h 5.8 mph /  9.3 km/h 98 % 0 in /  0.0 mm
07:45 33.6 °F /  0.9 °C 33.8 °F /  1.0 °C 29.8 in /  1010.0 hPa WSW 5.8 mph /  9.3 km/h 6.7 mph /  10.8 km/h 98 % 0 in /  0.0 mm
07:55 33.8 °F /  1.0 °C 33.8 °F /  1.0 °C 29.8 in /  1010.0 hPa West 6 mph /  9.7 km/h 7.4 mph /  11.9 km/h 98 % 0 in /  0.0 mm
08:00 33.8 °F /  1.0 °C 33.8 °F /  1.0 °C 29.8 in /  1010.0 hPa WSW 6.5 mph /  10.5 km/h 7.4 mph /  11.9 km/h 98 % 0 in /  0.0 mm
08:05 34 °F /  1.1 °C 33.8 °F /  1.0 °C 29.8 in /  1010.0 hPa West 4.9 mph /  7.9 km/h 7.8 mph /  12.6 km/h 98 % 0 in /  0.0 mm
08:10 34 °F /  1.1 °C 33.8 °F /  1.0 °C 29.9 in /  1011.1 hPa West 4.3 mph /  6.9 km/h 7.8 mph /  12.6 km/h 98 % 0 in /  0.0 mm
08:15 34.2 °F /  1.2 °C 33.8 °F /  1.0 °C 29.9 in /  1011.1 hPa WSW 6.5 mph /  10.5 km/h 7.8 mph /  12.6 km/h 98 % 0 in /  0.0 mm
08:21 34.2 °F /  1.2 °C 33.8 °F /  1.0 °C 29.9 in /  1011.1 hPa West 6 mph /  9.7 km/h 7.8 mph /  12.6 km/h 98 % 0 in /  0.0 mm
08:36 34.7 °F /  1.5 °C 35.6 °F /  2.0 °C 29.9 in /  1011.1 hPa WSW 5.8 mph /  9.3 km/h 8.7 mph /  14.0 km/h 98 % 0 in /  0.0 mm
08:41 34.9 °F /  1.6 °C 35.6 °F /  2.0 °C 29.9 in /  1011.1 hPa West 5.4 mph /  8.7 km/h 9.4 mph /  15.1 km/h 98 % 0 in /  0.0 mm
08:46 35.1 °F /  1.7 °C 35.6 °F /  2.0 °C 29.9 in /  1011.1 hPa WSW 6 mph /  9.7 km/h 9.4 mph /  15.1 km/h 98 % 0 in /  0.0 mm
08:51 35.2 °F /  1.8 °C 35.6 °F /  2.0 °C 29.9 in /  1011.1 hPa West 6.3 mph /  10.1 km/h 9.6 mph /  15.4 km/h 98 % 0 in /  0.0 mm
08:56 35.4 °F /  1.9 °C 35.6 °F /  2.0 °C 29.9 in /  1011.1 hPa WSW 5.8 mph /  9.3 km/h 9.6 mph /  15.4 km/h 97 % 0 in /  0.0 mm
09:01 35.6 °F /  2.0 °C 35.6 °F /  2.0 °C 29.9 in /  1011.1 hPa WSW 9.2 mph /  14.8 km/h 10.5 mph /  16.9 km/h 96 % 0 in /  0.0 mm
09:06 35.8 °F /  2.1 °C 35.6 °F /  2.0 °C 29.9 in /  1011.1 hPa WSW 6.5 mph /  10.5 km/h 10.7 mph /  17.2 km/h 96 % 0 in /  0.0 mm
09:11 36.3 °F /  2.4 °C 35.6 °F /  2.0 °C 29.9 in /  1011.1 hPa West 6.5 mph /  10.5 km/h 10.7 mph /  17.2 km/h 95 % 0 in /  0.0 mm
09:16 36.5 °F /  2.5 °C 35.6 °F /  2.0 °C 29.9 in /  1011.1 hPa West 8.7 mph /  14.0 km/h 14.1 mph /  22.7 km/h 95 % 0 in /  0.0 mm
09:21 36.7 °F /  2.6 °C 35.6 °F /  2.0 °C 29.9 in /  1011.1 hPa WSW 7.8 mph /  12.6 km/h 14.1 mph /  22.7 km/h 94 % 0 in /  0.0 mm
09:26 37 °F /  2.8 °C 35.6 °F /  2.0 °C 29.9 in /  1011.1 hPa West 6.5 mph /  10.5 km/h 12.8 mph /  20.6 km/h 93 % 0 in /  0.0 mm
09:31 37 °F /  2.8 °C 35.6 °F /  2.0 °C 29.9 in /  1011.1 hPa West 7.8 mph /  12.6 km/h 12.8 mph /  20.6 km/h 92 % 0 in /  0.0 mm
09:41 37.4 °F /  3.0 °C 35.6 °F /  2.0 °C 29.9 in /  1011.1 hPa West 7.8 mph /  12.6 km/h 11.4 mph /  18.3 km/h 90 % 0 in /  0.0 mm
09:56 37.9 °F /  3.3 °C 35.6 °F /  2.0 °C 29.8 in /  1010.0 hPa West 7.8 mph /  12.6 km/h 13 mph /  20.9 km/h 89 % 0 in /  0.0 mm
10:01 37.9 °F /  3.3 °C 35.6 °F /  2.0 °C 29.8 in /  1010.0 hPa WSW 5.8 mph /  9.3 km/h 12.5 mph /  20.1 km/h 88 % 0 in /  0.0 mm
10:06 38.1 °F /  3.4 °C 35.6 °F /  2.0 °C 29.8 in /  1010.0 hPa WSW 8.7 mph /  14.0 km/h 12.5 mph /  20.1 km/h 88 % 0 in /  0.0 mm
10:17 38.5 °F /  3.6 °C 35.6 °F /  2.0 °C 29.9 in /  1011.1 hPa WSW 3.8 mph /  6.1 km/h 11.9 mph /  19.1 km/h 88 % 0 in /  0.0 mm
10:27 38.8 °F /  3.8 °C 35.6 °F /  2.0 °C 29.9 in /  1011.1 hPa West 5.8 mph /  9.3 km/h 9.4 mph /  15.1 km/h 88 % 0 in /  0.0 mm
10:32 39.2 °F /  4.0 °C 35.6 °F /  2.0 °C 29.9 in /  1011.1 hPa WSW 5.4 mph /  8.7 km/h 7.4 mph /  11.9 km/h 87 % 0 in /  0.0 mm
10:37 39.4 °F /  4.1 °C 35.6 °F /  2.0 °C 29.9 in /  1011.1 hPa WNW 5.8 mph /  9.3 km/h 8.1 mph /  13.0 km/h 87 % 0 in /  0.0 mm
10:42 39.7 °F /  4.3 °C 37.4 °F /  3.0 °C 29.9 in /  1012.1 hPa SSW 4.9 mph /  7.9 km/h 8.5 mph /  13.7 km/h 87 % 0 in /  0.0 mm
10:47 40.1 °F /  4.5 °C 37.4 °F /  3.0 °C 29.9 in /  1012.1 hPa North 7.8 mph /  12.6 km/h 8.5 mph /  13.7 km/h 86 % 0 in /  0.0 mm
10:52 40.6 °F /  4.8 °C 37.4 °F /  3.0 °C 29.9 in /  1012.1 hPa South 7.2 mph /  11.6 km/h 8.7 mph /  14.0 km/h 86 % 0 in /  0.0 mm
10:57 41 °F /  5.0 °C 37.4 °F /  3.0 °C 29.9 in /  1012.1 hPa WNW 11 mph /  17.7 km/h 12.1 mph /  19.5 km/h 84 % 0 in /  0.0 mm
11:02 41.5 °F /  5.3 °C 37.4 °F /  3.0 °C 29.9 in /  1012.1 hPa SW 13.4 mph /  21.6 km/h 13.4 mph /  21.6 km/h 82 % 0 in /  0.0 mm
11:17 42.4 °F /  5.8 °C 37.4 °F /  3.0 °C 29.9 in /  1012.1 hPa WNW 13.2 mph /  21.2 km/h 13.2 mph /  21.2 km/h 78 % 0 in /  0.0 mm
11:22 42.3 °F /  5.7 °C 35.6 °F /  2.0 °C 29.9 in /  1012.1 hPa NNW 8.1 mph /  13.0 km/h 13.2 mph /  21.2 km/h 77 % 0 in /  0.0 mm
11:32 42.4 °F /  5.8 °C 37.4 °F /  3.0 °C 29.9 in /  1012.1 hPa NW 5.6 mph /  9.0 km/h 12.5 mph /  20.1 km/h 77 % 0 in /  0.0 mm
11:37 42.6 °F /  5.9 °C 35.6 °F /  2.0 °C 29.9 in /  1012.1 hPa NW 7.4 mph /  11.9 km/h 10.3 mph /  16.6 km/h 76 % 0 in /  0.0 mm
11:42 42.3 °F /  5.7 °C 35.6 °F /  2.0 °C 29.9 in /  1013.1 hPa West 5.4 mph /  8.7 km/h 11 mph /  17.7 km/h 76 % 0 in /  0.0 mm
11:47 41.5 °F /  5.3 °C 35.6 °F /  2.0 °C 29.9 in /  1013.1 hPa WSW 2.9 mph /  4.7 km/h 11 mph /  17.7 km/h 75 % 0 in /  0.0 mm
12:02 41.4 °F /  5.2 °C 35.6 °F /  2.0 °C 29.9 in /  1012.1 hPa WNW 7.4 mph /  11.9 km/h 11 mph /  17.7 km/h 77 % 0 in /  0.0 mm
12:07 41.5 °F /  5.3 °C 35.6 °F /  2.0 °C 29.9 in /  1012.1 hPa West 5.6 mph /  9.0 km/h 11 mph /  17.7 km/h 77 % 0 in /  0.0 mm
12:11 41.9 °F /  5.5 °C 35.6 °F /  2.0 °C 29.9 in /  1012.1 hPa West 11 mph /  17.7 km/h 11 mph /  17.7 km/h 78 % 0 in /  0.0 mm
12:21 41.9 °F /  5.5 °C 35.6 °F /  2.0 °C 29.9 in /  1012.1 hPa WNW 8.5 mph /  13.7 km/h 11 mph /  17.7 km/h 77 % 0 in /  0.0 mm
12:26 41.9 °F /  5.5 °C 35.6 °F /  2.0 °C 29.9 in /  1013.1 hPa NNW 4 mph /  6.4 km/h 13.2 mph /  21.2 km/h 77 % 0 in /  0.0 mm
12:31 42.1 °F /  5.6 °C 35.6 °F /  2.0 °C 29.9 in /  1013.1 hPa WNW 6.3 mph /  10.1 km/h 13.2 mph /  21.2 km/h 77 % 0 in /  0.0 mm
12:34 42.4 °F /  5.8 °C 35.6 °F /  2.0 °C 29.9 in /  1013.1 hPa SW 8.7 mph /  14.0 km/h 13.2 mph /  21.2 km/h 76 % 0 in /  0.0 mm
12:39 42.8 °F /  6.0 °C 35.6 °F /  2.0 °C 29.9 in /  1013.1 hPa West 6.5 mph /  10.5 km/h 13.2 mph /  21.2 km/h 76 % 0 in /  0.0 mm
12:44 43.2 °F /  6.2 °C 37.4 °F /  3.0 °C 29.9 in /  1013.1 hPa WSW 5.6 mph /  9.0 km/h 16.8 mph /  27.0 km/h 76 % 0 in /  0.0 mm
12:49 43.3 °F /  6.3 °C 35.6 °F /  2.0 °C 29.9 in /  1013.1 hPa SSW 8.5 mph /  13.7 km/h 16.8 mph /  27.0 km/h 74 % 0 in /  0.0 mm
12:54 43.3 °F /  6.3 °C 35.6 °F /  2.0 °C 29.9 in /  1013.1 hPa WNW 8.1 mph /  13.0 km/h 13.2 mph /  21.2 km/h 74 % 0 in /  0.0 mm
12:59 43.2 °F /  6.2 °C 35.6 °F /  2.0 °C 29.9 in /  1013.1 hPa WNW 8.7 mph /  14.0 km/h 13 mph /  20.9 km/h 73 % 0 in /  0.0 mm
13:04 43 °F /  6.1 °C 33.8 °F /  1.0 °C 29.9 in /  1013.1 hPa West 13.2 mph /  21.2 km/h 13.6 mph /  21.9 km/h 69 % 0 in /  0.0 mm
13:09 42.4 °F /  5.8 °C 33.8 °F /  1.0 °C 29.9 in /  1013.1 hPa WNW 8.1 mph /  13.0 km/h 15.4 mph /  24.8 km/h 70 % 0 in /  0.0 mm
13:14 42.1 °F /  5.6 °C 33.8 °F /  1.0 °C 29.9 in /  1013.1 hPa South 8.7 mph /  14.0 km/h 15.4 mph /  24.8 km/h 70 % 0 in /  0.0 mm
13:19 41.9 °F /  5.5 °C 33.8 °F /  1.0 °C 29.9 in /  1013.1 hPa NW 6.5 mph /  10.5 km/h 19.7 mph /  31.7 km/h 69 % 0 in /  0.0 mm
13:24 42.1 °F /  5.6 °C 33.8 °F /  1.0 °C 29.9 in /  1013.1 hPa West 11 mph /  17.7 km/h 19.7 mph /  31.7 km/h 70 % 0 in /  0.0 mm
13:29 41.9 °F /  5.5 °C 33.8 °F /  1.0 °C 29.9 in /  1013.1 hPa West 9.8 mph /  15.8 km/h 16.6 mph /  26.7 km/h 69 % 0 in /  0.0 mm
13:34 42.1 °F /  5.6 °C 33.8 °F /  1.0 °C 29.9 in /  1013.1 hPa West 4.9 mph /  7.9 km/h 16.6 mph /  26.7 km/h 69 % 0 in /  0.0 mm
13:39 42.1 °F /  5.6 °C 33.8 °F /  1.0 °C 29.9 in /  1013.1 hPa NNW 2 mph /  3.2 km/h 12.3 mph /  19.8 km/h 70 % 0 in /  0.0 mm
13:44 41.7 °F /  5.4 °C 32 °F /  0.0 °C 29.9 in /  1013.1 hPa NW 3.6 mph /  5.8 km/h 10.3 mph /  16.6 km/h 69 % 0 in /  0.0 mm
13:49 41.9 °F /  5.5 °C 33.8 °F /  1.0 °C 29.9 in /  1013.1 hPa WNW 7.2 mph /  11.6 km/h 10.3 mph /  16.6 km/h 69 % 0 in /  0.0 mm
14:00 42.4 °F /  5.8 °C 33.8 °F /  1.0 °C 29.9 in /  1013.1 hPa West 6.5 mph /  10.5 km/h 17.4 mph /  28.0 km/h 68 % 0 in /  0.0 mm
14:05 42.3 °F /  5.7 °C 32 °F /  0.0 °C 29.9 in /  1013.1 hPa WNW 10.3 mph /  16.6 km/h 17.4 mph /  28.0 km/h 67 % 0 in /  0.0 mm
14:10 41.9 °F /  5.5 °C 33.8 °F /  1.0 °C 29.9 in /  1013.1 hPa West 7.6 mph /  12.2 km/h 12.8 mph /  20.6 km/h 68 % 0 in /  0.0 mm
14:15 41.5 °F /  5.3 °C 32 °F /  0.0 °C 29.9 in /  1013.1 hPa WNW 11.9 mph /  19.1 km/h 14.8 mph /  23.8 km/h 68 % 0 in /  0.0 mm
14:20 41.5 °F /  5.3 °C 32 °F /  0.0 °C 29.9 in /  1013.1 hPa WNW 7.8 mph /  12.6 km/h 15.9 mph /  25.6 km/h 68 % 0 in /  0.0 mm
14:25 41.4 °F /  5.2 °C 32 °F /  0.0 °C 29.9 in /  1013.1 hPa WSW 5.8 mph /  9.3 km/h 15.9 mph /  25.6 km/h 67 % 0 in /  0.0 mm
14:30 41.2 °F /  5.1 °C 30.2 °F /  -1.0 °C 29.9 in /  1012.1 hPa WNW 8.1 mph /  13.0 km/h 15.2 mph /  24.5 km/h 65 % 0 in /  0.0 mm
14:35 41 °F /  5.0 °C 30.2 °F /  -1.0 °C 29.9 in /  1012.1 hPa NW 5.8 mph /  9.3 km/h 15.2 mph /  24.5 km/h 66 % 0 in /  0.0 mm
14:40 40.8 °F /  4.9 °C 30.2 °F /  -1.0 °C 29.9 in /  1013.1 hPa NW 10.3 mph /  16.6 km/h 12.5 mph /  20.1 km/h 67 % 0 in /  0.0 mm
14:45 40.6 °F /  4.8 °C 30.2 °F /  -1.0 °C 29.9 in /  1013.1 hPa WNW 8.7 mph /  14.0 km/h 10.7 mph /  17.2 km/h 68 % 0 in /  0.0 mm
14:50 40.5 °F /  4.7 °C 30.2 °F /  -1.0 °C 29.9 in /  1013.1 hPa West 6.3 mph /  10.1 km/h 10.5 mph /  16.9 km/h 69 % 0 in /  0.0 mm
15:00 41 °F /  5.0 °C 32 °F /  0.0 °C 29.9 in /  1012.1 hPa WNW 8.7 mph /  14.0 km/h 10.5 mph /  16.9 km/h 69 % 0 in /  0.0 mm
15:06 41 °F /  5.0 °C 32 °F /  0.0 °C 29.9 in /  1012.1 hPa WNW 9.8 mph /  15.8 km/h 11.2 mph /  18.0 km/h 69 % 0 in /  0.0 mm
15:11 40.5 °F /  4.7 °C 30.2 °F /  -1.0 °C 29.9 in /  1013.1 hPa West 5.4 mph /  8.7 km/h 11.2 mph /  18.0 km/h 68 % 0 in /  0.0 mm
15:16 40.5 °F /  4.7 °C 30.2 °F /  -1.0 °C 29.9 in /  1013.1 hPa WNW 5.8 mph /  9.3 km/h 11 mph /  17.7 km/h 68 % 0 in /  0.0 mm
15:21 40.8 °F /  4.9 °C 32 °F /  0.0 °C 29.9 in /  1013.1 hPa West 5.8 mph /  9.3 km/h 10.7 mph /  17.2 km/h 68 % 0 in /  0.0 mm
15:26 40.6 °F /  4.8 °C 30.2 °F /  -1.0 °C 29.9 in /  1013.1 hPa WNW 4.9 mph /  7.9 km/h 9.6 mph /  15.4 km/h 69 % 0 in /  0.0 mm
15:31 40.6 °F /  4.8 °C 30.2 °F /  -1.0 °C 29.9 in /  1013.1 hPa West 10.1 mph /  16.3 km/h 10.1 mph /  16.3 km/h 69 % 0 in /  0.0 mm
15:36 41 °F /  5.0 °C 32 °F /  0.0 °C 29.9 in /  1013.1 hPa WNW 3.8 mph /  6.1 km/h 10.7 mph /  17.2 km/h 68 % 0 in /  0.0 mm
15:41 41.2 °F /  5.1 °C 32 °F /  0.0 °C 29.9 in /  1013.1 hPa West 5.8 mph /  9.3 km/h 10.7 mph /  17.2 km/h 68 % 0 in /  0.0 mm
15:51 40.8 °F /  4.9 °C 30.2 °F /  -1.0 °C 29.9 in /  1013.1 hPa NW 8.1 mph /  13.0 km/h 16.1 mph /  25.9 km/h 64 % 0 in /  0.0 mm
16:11 39.6 °F /  4.2 °C 30.2 °F /  -1.0 °C 29.9 in /  1013.1 hPa WNW 7.6 mph /  12.2 km/h 12.1 mph /  19.5 km/h 68 % 0 in /  0.0 mm
16:16 39.4 °F /  4.1 °C 30.2 °F /  -1.0 °C 29.9 in /  1013.1 hPa West 4.9 mph /  7.9 km/h 8.7 mph /  14.0 km/h 68 % 0 in /  0.0 mm
16:21 39.2 °F /  4.0 °C 30.2 °F /  -1.0 °C 29.9 in /  1013.1 hPa West 4.7 mph /  7.6 km/h 8.7 mph /  14.0 km/h 69 % 0 in /  0.0 mm
16:31 38.5 °F /  3.6 °C 30.2 °F /  -1.0 °C 29.9 in /  1013.1 hPa WNW 4.9 mph /  7.9 km/h 9.2 mph /  14.8 km/h 71 % 0 in /  0.0 mm
16:41 37.9 °F /  3.3 °C 30.2 °F /  -1.0 °C 29.9 in /  1013.1 hPa West 5.4 mph /  8.7 km/h 8.1 mph /  13.0 km/h 73 % 0 in /  0.0 mm
16:46 37.6 °F /  3.1 °C 30.2 °F /  -1.0 °C 29.9 in /  1013.1 hPa West 2.7 mph /  4.3 km/h 8.1 mph /  13.0 km/h 73 % 0 in /  0.0 mm
17:02 37.6 °F /  3.1 °C 30.2 °F /  -1.0 °C 29.9 in /  1014.1 hPa WSW 7.2 mph /  11.6 km/h 10.1 mph /  16.3 km/h 74 % 0 in /  0.0 mm
17:07 37.8 °F /  3.2 °C 30.2 °F /  -1.0 °C 29.9 in /  1014.1 hPa WSW 6.3 mph /  10.1 km/h 10.3 mph /  16.6 km/h 73 % 0 in /  0.0 mm
17:12 37.8 °F /  3.2 °C 30.2 °F /  -1.0 °C 29.9 in /  1014.1 hPa West 6.3 mph /  10.1 km/h 10.3 mph /  16.6 km/h 73 % 0 in /  0.0 mm
17:17 37.4 °F /  3.0 °C 30.2 °F /  -1.0 °C 29.9 in /  1014.1 hPa WSW 3.8 mph /  6.1 km/h 8.1 mph /  13.0 km/h 72 % 0 in /  0.0 mm
17:22 37.2 °F /  2.9 °C 30.2 °F /  -1.0 °C 29.9 in /  1014.1 hPa West 4.9 mph /  7.9 km/h 7.2 mph /  11.6 km/h 73 % 0 in /  0.0 mm
17:27 36.9 °F /  2.7 °C 30.2 °F /  -1.0 °C 29.9 in /  1014.1 hPa WNW 2 mph /  3.2 km/h 7.2 mph /  11.6 km/h 73 % 0 in /  0.0 mm
17:32 36.7 °F /  2.6 °C 30.2 °F /  -1.0 °C 29.9 in /  1014.1 hPa West 1.1 mph /  1.8 km/h 7.2 mph /  11.6 km/h 73 % 0 in /  0.0 mm
17:37 36.5 °F /  2.5 °C 30.2 °F /  -1.0 °C 29.9 in /  1014.1 hPa WSW 4 mph /  6.4 km/h 7.8 mph /  12.6 km/h 73 % 0 in /  0.0 mm
17:47 36 °F /  2.2 °C 28.4 °F /  -2.0 °C 29.9 in /  1014.1 hPa West 7.2 mph /  11.6 km/h 10.5 mph /  16.9 km/h 74 % 0 in /  0.0 mm
17:52 35.8 °F /  2.1 °C 30.2 °F /  -1.0 °C 29.9 in /  1014.1 hPa WSW 9.8 mph /  15.8 km/h 10.5 mph /  16.9 km/h 75 % 0 in /  0.0 mm
17:57 35.6 °F /  2.0 °C 30.2 °F /  -1.0 °C 29.9 in /  1014.1 hPa WSW 2.7 mph /  4.3 km/h 9.8 mph /  15.8 km/h 75 % 0 in /  0.0 mm
18:02 35.6 °F /  2.0 °C 30.2 °F /  -1.0 °C 29.9 in /  1014.1 hPa West 3.4 mph /  5.5 km/h 9.4 mph /  15.1 km/h 76 % 0 in /  0.0 mm
18:12 35.4 °F /  1.9 °C 28.4 °F /  -2.0 °C 29.9 in /  1014.1 hPa West 1.6 mph /  2.6 km/h 8.1 mph /  13.0 km/h 76 % 0 in /  0.0 mm
18:17 35.2 °F /  1.8 °C 28.4 °F /  -2.0 °C 29.9 in /  1014.1 hPa WSW 7.8 mph /  12.6 km/h 7.8 mph /  12.6 km/h 77 % 0 in /  0.0 mm
18:37 34.2 °F /  1.2 °C 28.4 °F /  -2.0 °C 29.9 in /  1014.1 hPa West 3.6 mph /  5.8 km/h 5.4 mph /  8.7 km/h 77 % 0 in /  0.0 mm
18:42 34 °F /  1.1 °C 28.4 °F /  -2.0 °C 29.9 in /  1014.1 hPa West 4.7 mph /  7.6 km/h 5.6 mph /  9.0 km/h 78 % 0 in /  0.0 mm
18:47 33.8 °F /  1.0 °C 28.4 °F /  -2.0 °C 29.9 in /  1014.1 hPa WNW 3.4 mph /  5.5 km/h 5.6 mph /  9.0 km/h 78 % 0 in /  0.0 mm
18:52 33.8 °F /  1.0 °C 28.4 °F /  -2.0 °C 29.9 in /  1014.1 hPa West 3.4 mph /  5.5 km/h 5.8 mph /  9.3 km/h 79 % 0 in /  0.0 mm
18:57 33.8 °F /  1.0 °C 28.4 °F /  -2.0 °C 30 in /  1015.1 hPa West 2.7 mph /  4.3 km/h 7.2 mph /  11.6 km/h 79 % 0 in /  0.0 mm
19:02 33.8 °F /  1.0 °C 28.4 °F /  -2.0 °C 30 in /  1015.1 hPa WSW 4 mph /  6.4 km/h 7.2 mph /  11.6 km/h 80 % 0 in /  0.0 mm
19:07 34 °F /  1.1 °C 28.4 °F /  -2.0 °C 30 in /  1015.1 hPa WSW 6 mph /  9.7 km/h 6.5 mph /  10.5 km/h 80 % 0 in /  0.0 mm
19:12 34 °F /  1.1 °C 28.4 °F /  -2.0 °C 30 in /  1015.1 hPa West 6.3 mph /  10.1 km/h 7.8 mph /  12.6 km/h 81 % 0 in /  0.0 mm
19:18 34.2 °F /  1.2 °C 30.2 °F /  -1.0 °C 30 in /  1015.1 hPa West 7.2 mph /  11.6 km/h 7.8 mph /  12.6 km/h 82 % 0 in /  0.0 mm
19:23 34.2 °F /  1.2 °C 30.2 °F /  -1.0 °C 30 in /  1015.1 hPa West 4.9 mph /  7.9 km/h 7.4 mph /  11.9 km/h 82 % 0 in /  0.0 mm
19:28 34.2 °F /  1.2 °C 30.2 °F /  -1.0 °C 30 in /  1015.1 hPa West 6.5 mph /  10.5 km/h 6.7 mph /  10.8 km/h 81 % 0 in /  0.0 mm
19:33 34.2 °F /  1.2 °C 30.2 °F /  -1.0 °C 30 in /  1015.1 hPa West 7.2 mph /  11.6 km/h 7.6 mph /  12.2 km/h 81 % 0 in /  0.0 mm
19:38 34.3 °F /  1.3 °C 30.2 °F /  -1.0 °C 30 in /  1015.1 hPa WNW 10.7 mph /  17.2 km/h 10.7 mph /  17.2 km/h 81 % 0 in /  0.0 mm
19:43 34.3 °F /  1.3 °C 30.2 °F /  -1.0 °C 30 in /  1015.1 hPa West 4.9 mph /  7.9 km/h 10.7 mph /  17.2 km/h 81 % 0 in /  0.0 mm
19:48 34.3 °F /  1.3 °C 30.2 °F /  -1.0 °C 30 in /  1015.1 hPa WSW 4.9 mph /  7.9 km/h 8.7 mph /  14.0 km/h 81 % 0 in /  0.0 mm
19:53 34.2 °F /  1.2 °C 30.2 °F /  -1.0 °C 30 in /  1015.1 hPa WSW 1.1 mph /  1.8 km/h 7.6 mph /  12.2 km/h 81 % 0 in /  0.0 mm
19:58 34.2 °F /  1.2 °C 30.2 °F /  -1.0 °C 30 in /  1015.1 hPa WSW 4.9 mph /  7.9 km/h 8.5 mph /  13.7 km/h 81 % 0 in /  0.0 mm
20:03 34 °F /  1.1 °C 28.4 °F /  -2.0 °C 30 in /  1015.1 hPa West 4 mph /  6.4 km/h 8.5 mph /  13.7 km/h 81 % 0 in /  0.0 mm
20:08 34 °F /  1.1 °C 28.4 °F /  -2.0 °C 30 in /  1015.1 hPa NW 6.3 mph /  10.1 km/h 7.8 mph /  12.6 km/h 81 % 0 in /  0.0 mm
20:13 34 °F /  1.1 °C 28.4 °F /  -2.0 °C 30 in /  1015.1 hPa WSW 3.6 mph /  5.8 km/h 7.8 mph /  12.6 km/h 81 % 0 in /  0.0 mm
20:18 34 °F /  1.1 °C 30.2 °F /  -1.0 °C 30 in /  1015.1 hPa West 2.9 mph /  4.7 km/h 7.6 mph /  12.2 km/h 82 % 0 in /  0.0 mm
20:23 34.2 °F /  1.2 °C 30.2 °F /  -1.0 °C 30 in /  1015.1 hPa WSW 6 mph /  9.7 km/h 7.4 mph /  11.9 km/h 83 % 0 in /  0.0 mm
20:28 34.5 °F /  1.4 °C 30.2 °F /  -1.0 °C 30 in /  1015.1 hPa NNW 5.6 mph /  9.0 km/h 8.1 mph /  13.0 km/h 83 % 0 in /  0.0 mm
20:33 34.9 °F /  1.6 °C 30.2 °F /  -1.0 °C 30 in /  1015.1 hPa NNW 3.8 mph /  6.1 km/h 10.5 mph /  16.9 km/h 82 % 0 in /  0.0 mm
20:38 35.2 °F /  1.8 °C 30.2 °F /  -1.0 °C 30 in /  1015.1 hPa NNW 7.2 mph /  11.6 km/h 10.5 mph /  16.9 km/h 82 % 0 in /  0.0 mm
20:43 35.2 °F /  1.8 °C 30.2 °F /  -1.0 °C 30 in /  1015.1 hPa WNW 4 mph /  6.4 km/h 12.8 mph /  20.6 km/h 81 % 0 in /  0.0 mm
20:48 35.4 °F /  1.9 °C 30.2 °F /  -1.0 °C 30 in /  1015.1 hPa West 6.5 mph /  10.5 km/h 12.8 mph /  20.6 km/h 81 % 0 in /  0.0 mm
20:53 35.4 °F /  1.9 °C 30.2 °F /  -1.0 °C 30 in /  1015.1 hPa WNW 5.6 mph /  9.0 km/h 10.3 mph /  16.6 km/h 81 % 0 in /  0.0 mm
20:58 35.2 °F /  1.8 °C 30.2 °F /  -1.0 °C 30 in /  1015.1 hPa WSW 4.3 mph /  6.9 km/h 10.7 mph /  17.2 km/h 80 % 0 in /  0.0 mm
21:03 35.1 °F /  1.7 °C 30.2 °F /  -1.0 °C 30 in /  1015.1 hPa NNW 2.9 mph /  4.7 km/h 10.7 mph /  17.2 km/h 80 % 0 in /  0.0 mm
21:05 35.1 °F /  1.7 °C 30.2 °F /  -1.0 °C 30 in /  1015.1 hPa West 2.7 mph /  4.3 km/h 9.4 mph /  15.1 km/h 80 % 0 in /  0.0 mm
21:10 34.9 °F /  1.6 °C 30.2 °F /  -1.0 °C 30 in /  1015.1 hPa WNW 2.9 mph /  4.7 km/h 10.1 mph /  16.3 km/h 80 % 0 in /  0.0 mm
21:15 34.9 °F /  1.6 °C 30.2 °F /  -1.0 °C 29.9 in /  1014.1 hPa West 3.8 mph /  6.1 km/h 10.1 mph /  16.3 km/h 81 % 0 in /  0.0 mm
21:20 34.9 °F /  1.6 °C 30.2 °F /  -1.0 °C 29.9 in /  1014.1 hPa West 4.3 mph /  6.9 km/h 8.5 mph /  13.7 km/h 81 % 0 in /  0.0 mm
21:25 34.7 °F /  1.5 °C 30.2 °F /  -1.0 °C 29.9 in /  1014.1 hPa West 3.4 mph /  5.5 km/h 8.5 mph /  13.7 km/h 81 % 0 in /  0.0 mm
21:30 34.5 °F /  1.4 °C 30.2 °F /  -1.0 °C 30 in /  1015.1 hPa West 4.9 mph /  7.9 km/h 8.5 mph /  13.7 km/h 81 % 0 in /  0.0 mm
21:35 34.3 °F /  1.3 °C 30.2 °F /  -1.0 °C 30 in /  1015.1 hPa WSW 4 mph /  6.4 km/h 7.8 mph /  12.6 km/h 81 % 0 in /  0.0 mm
21:40 34.2 °F /  1.2 °C 30.2 °F /  -1.0 °C 30 in /  1015.1 hPa West 6.5 mph /  10.5 km/h 7.6 mph /  12.2 km/h 81 % 0 in /  0.0 mm
21:45 34 °F /  1.1 °C 28.4 °F /  -2.0 °C 30 in /  1015.1 hPa West 3.4 mph /  5.5 km/h 7.6 mph /  12.2 km/h 81 % 0 in /  0.0 mm
21:50 33.8 °F /  1.0 °C 30.2 °F /  -1.0 °C 30 in /  1015.1 hPa West 3.8 mph /  6.1 km/h 8.7 mph /  14.0 km/h 82 % 0 in /  0.0 mm
21:55 33.8 °F /  1.0 °C 30.2 °F /  -1.0 °C 30 in /  1015.1 hPa WNW 3.1 mph /  5.0 km/h 8.7 mph /  14.0 km/h 82 % 0 in /  0.0 mm
22:06 33.6 °F /  0.9 °C 30.2 °F /  -1.0 °C 30 in /  1015.1 hPa West 7.2 mph /  11.6 km/h 7.8 mph /  12.6 km/h 83 % 0 in /  0.0 mm
22:11 33.6 °F /  0.9 °C 30.2 °F /  -1.0 °C 30 in /  1015.1 hPa West 5.8 mph /  9.3 km/h 8.1 mph /  13.0 km/h 84 % 0 in /  0.0 mm
22:16 33.6 °F /  0.9 °C 30.2 °F /  -1.0 °C 30 in /  1015.1 hPa WSW 0.9 mph /  1.4 km/h 8.5 mph /  13.7 km/h 85 % 0 in /  0.0 mm
22:21 33.6 °F /  0.9 °C 30.2 °F /  -1.0 °C 30 in /  1015.1 hPa WNW 6.5 mph /  10.5 km/h 8.5 mph /  13.7 km/h 85 % 0 in /  0.0 mm
22:31 33.8 °F /  1.0 °C 30.2 °F /  -1.0 °C 30 in /  1015.1 hPa West 5.6 mph /  9.0 km/h 8.7 mph /  14.0 km/h 84 % 0 in /  0.0 mm
22:36 33.6 °F /  0.9 °C 30.2 °F /  -1.0 °C 30 in /  1015.1 hPa WSW 3.8 mph /  6.1 km/h 9.2 mph /  14.8 km/h 85 % 0 in /  0.0 mm
22:41 33.6 °F /  0.9 °C 30.2 °F /  -1.0 °C 30 in /  1015.1 hPa WNW 3.4 mph /  5.5 km/h 9.2 mph /  14.8 km/h 85 % 0 in /  0.0 mm
22:46 33.6 °F /  0.9 °C 30.2 °F /  -1.0 °C 30 in /  1015.1 hPa WSW 7.8 mph /  12.6 km/h 8.7 mph /  14.0 km/h 85 % 0 in /  0.0 mm
22:51 33.6 °F /  0.9 °C 30.2 °F /  -1.0 °C 30 in /  1015.1 hPa West 4 mph /  6.4 km/h 7.8 mph /  12.6 km/h 85 % 0 in /  0.0 mm
22:56 33.4 °F /  0.8 °C 30.2 °F /  -1.0 °C 30 in /  1015.1 hPa West 7.2 mph /  11.6 km/h 9.2 mph /  14.8 km/h 85 % 0 in /  0.0 mm
23:11 33.1 °F /  0.6 °C 30.2 °F /  -1.0 °C 30 in /  1015.1 hPa West 5.6 mph /  9.0 km/h 8.5 mph /  13.7 km/h 84 % 0 in /  0.0 mm
23:16 32.9 °F /  0.5 °C 30.2 °F /  -1.0 °C 30 in /  1015.1 hPa WSW 3.6 mph /  5.8 km/h 7.4 mph /  11.9 km/h 85 % 0 in /  0.0 mm
23:21 32.7 °F /  0.4 °C 30.2 °F /  -1.0 °C 30 in /  1015.1 hPa West 5.4 mph /  8.7 km/h 7.4 mph /  11.9 km/h 85 % 0 in /  0.0 mm
23:26 32.7 °F /  0.4 °C 30.2 °F /  -1.0 °C 30 in /  1015.1 hPa West 6.3 mph /  10.1 km/h 6.5 mph /  10.5 km/h 85 % 0 in /  0.0 mm
23:31 32.7 °F /  0.4 °C 30.2 °F /  -1.0 °C 30 in /  1015.1 hPa West 4.3 mph /  6.9 km/h 7.6 mph /  12.2 km/h 85 % 0 in /  0.0 mm
23:36 32.7 °F /  0.4 °C 30.2 °F /  -1.0 °C 30 in /  1015.1 hPa WSW 8.5 mph /  13.7 km/h 8.7 mph /  14.0 km/h 86 % 0 in /  0.0 mm
23:41 32.7 °F /  0.4 °C 30.2 °F /  -1.0 °C 30 in /  1015.1 hPa West 4.9 mph /  7.9 km/h 8.7 mph /  14.0 km/h 87 % 0 in /  0.0 mm
23:46 32.7 °F /  0.4 °C 30.2 °F /  -1.0 °C 30 in /  1015.1 hPa West 5.6 mph /  9.0 km/h 8.7 mph /  14.0 km/h 87 % 0 in /  0.0 mm
23:51 32.5 °F /  0.3 °C 30.2 °F /  -1.0 °C 30 in /  1015.1 hPa WSW 5.6 mph /  9.0 km/h 7.6 mph /  12.2 km/h 87 % 0 in /  0.0 mm
23:56 32.4 °F /  0.2 °C 30.2 °F /  -1.0 °C 30 in /  1015.1 hPa West 4 mph /  6.4 km/h 7.2 mph /  11.6 km/h 87 % 0 in /  0.0 mm
Le Gheer Warneton
Courtoisie de Weather Underground - 2 mb

Mise a jour : 17-12-17 09:11:12
Généré par Cumulus 1.9.4 (1099)